To NAV CANADA Home Page Login to a new session Search on AWWS site Feedback and Comments Disclaimer Vers la page française équivalente Tips FAQ What's new on the site To the Forecasts and Observations / NOTAM section To "File a Flight Plan" website Publications and other links Update of the User's profile FIC Telephone Numbers My Weather Data Folder Route Weather Data Regional Weather Data Local Weather Data To the Forecasts and Observations / NOTAM section
Request Generated 01/17/2017 at 04:48:56 UTC . Weather information available at that time is displayed.

METAR/TAF

YARMOUTH/NS    

METAR CYQI 170400Z 28015G23KT 15SM BKN250 04/00 A3009 RMK CI5 SLP191=
METAR CYQI 170300Z 27017G26KT 15SM FEW025 FEW080 SCT250 04/00 A3010
RMK SC1AC2CI1 SC TR SLP195=
METAR CYQI 170200Z 26016G28KT 15SM BKN025 04/00 A3012 RMK SC7 SLP203=

TAF AMD CYQI 170104Z 1701/1712 24018G28KT P6SM SCT020 BKN100 TEMPO
1701/1708 BKN020 OVC100
BECMG 1703/1705 30015G25KT
FM170800 32012G22KT P6SM -SHSN BKN030
RMK NXT FCST BY 170600Z=
Your time UTC time
Weather data provided by Environment Canada and NAV CANADA